Time;durP1;ratioP1;P1;durP2;ratioP2;P2;SDS_P1;SDS_P2;PMS_P1;PMS_P2;Temp;Humidity;BMP_temperature;BMP_pressure;BME280_temperature;BME280_humidity;BME280_pressure;Samples;Min_cycle;Max_cycle;Signal;HPM_P1;HPM_P2
2021/11/16 00:04:28;;;;;;;5.37;4.50;;;;;;;;;;10326706;28;20895;-88
2021/11/16 00:09:28;;;;;;;9.10;4.72;;;;;;;;;;10313080;28;20053;-90
2021/11/16 00:14:31;;;;;;;9.57;5.53;;;;;;;;;;10313361;28;20031;-88
2021/11/16 00:19:31;;;;;;;8.30;4.53;;;;;;;;;;10311351;28;20457;-87
2021/11/16 00:24:39;;;;;;;7.28;4.88;;;;;;;;;;10331323;28;20038;-87
2021/11/16 00:29:39;;;;;;;6.60;4.75;;;;;;;;;;10408838;23;20058;-87
2021/11/16 00:34:39;;;;;;;7.97;4.55;;;;;;;;;;10374048;28;20038;-87
2021/11/16 00:39:40;;;;;;;8.80;4.77;;;;;;;;;;10375980;28;20037;-88
2021/11/16 00:44:40;;;;;;;7.10;5.00;;;;;;;;;;10367024;28;20436;-88
2021/11/16 00:49:41;;;;;;;9.03;4.67;;;;;;;;;;10377300;28;20451;-87
2021/11/16 00:54:41;;;;;;;7.75;4.15;;;;;;;;;;10359502;28;20037;-88
2021/11/16 00:59:42;;;;;;;8.07;4.53;;;;;;;;;;10360585;28;20026;-88
2021/11/16 01:04:48;;;;;;;8.60;5.03;;;;;;;;;;10374260;28;20531;-88
2021/11/16 01:09:49;;;;;;;6.93;4.50;;;;;;;;;;10373938;28;20021;-89
2021/11/16 01:14:50;;;;;;;5.15;4.40;;;;;;;;;;10366022;28;20030;-89
2021/11/16 01:19:51;;;;;;;6.63;4.50;;;;;;;;;;10363897;28;20393;-89
2021/11/16 01:24:51;;;;;;;5.30;4.22;;;;;;;;;;10360498;28;20034;-88
2021/11/16 01:29:54;;;;;;;6.13;4.35;;;;;;;;;;10364046;28;20365;-88
2021/11/16 01:34:54;;;;;;;6.32;4.63;;;;;;;;;;10359791;28;20033;-88
2021/11/16 01:39:55;;;;;;;8.48;4.47;;;;;;;;;;10374784;28;20036;-88
2021/11/16 01:44:56;;;;;;;7.63;5.00;;;;;;;;;;10357006;28;20105;-90
2021/11/16 01:49:57;;;;;;;5.53;4.47;;;;;;;;;;10371994;28;20108;-90
2021/11/16 01:54:57;;;;;;;5.50;4.30;;;;;;;;;;10389012;28;20040;-90
2021/11/16 01:59:58;;;;;;;5.38;4.10;;;;;;;;;;10370242;28;20032;-89
2021/11/16 02:04:58;;;;;;;5.15;4.25;;;;;;;;;;10371747;28;20453;-90
2021/11/16 02:09:59;;;;;;;7.30;4.38;;;;;;;;;;10371914;28;20547;-89
2021/11/16 02:14:59;;;;;;;6.93;3.93;;;;;;;;;;10348559;28;20073;-89
2021/11/16 02:20:00;;;;;;;4.43;3.78;;;;;;;;;;10367559;28;20037;-89
2021/11/16 02:25:01;;;;;;;7.82;4.00;;;;;;;;;;10350192;28;20032;-88
2021/11/16 02:30:04;;;;;;;5.47;3.75;;;;;;;;;;10380216;28;20137;-89
2021/11/16 02:35:05;;;;;;;5.75;4.18;;;;;;;;;;10377642;28;20120;-89
2021/11/16 02:40:05;;;;;;;5.70;3.97;;;;;;;;;;10366824;28;20030;-89
2021/11/16 02:45:08;;;;;;;4.60;4.05;;;;;;;;;;10356231;28;20084;-91
2021/11/16 02:50:08;;;;;;;4.20;3.70;;;;;;;;;;10389455;28;20037;-91
2021/11/16 02:55:10;;;;;;;4.82;4.20;;;;;;;;;;10380139;28;20034;-89
2021/11/16 03:00:16;;;;;;;6.18;3.80;;;;;;;;;;10369509;28;20054;-90
2021/11/16 03:05:16;;;;;;;5.47;3.70;;;;;;;;;;10379105;28;20113;-90
2021/11/16 03:10:17;;;;;;;5.15;3.88;;;;;;;;;;10360478;28;20112;-90
2021/11/16 03:15:19;;;;;;;5.75;3.75;;;;;;;;;;10383246;28;20033;-90
2021/11/16 03:20:21;;;;;;;4.43;3.88;;;;;;;;;;10385072;28;20389;-91
2021/11/16 03:25:26;;;;;;;6.40;4.10;;;;;;;;;;10375068;28;20033;-89
2021/11/16 03:30:28;;;;;;;4.22;3.42;;;;;;;;;;10367702;28;20161;-89
2021/11/16 03:35:29;;;;;;;5.53;4.10;;;;;;;;;;10385150;28;20117;-89
2021/11/16 03:40:34;;;;;;;5.13;3.80;;;;;;;;;;10378743;28;20134;-89
2021/11/16 03:45:36;;;;;;;5.13;4.15;;;;;;;;;;10364010;28;20861;-89
2021/11/16 03:50:37;;;;;;;4.38;3.60;;;;;;;;;;10381381;28;20034;-89
2021/11/16 03:55:42;;;;;;;3.88;3.47;;;;;;;;;;10379334;28;20416;-90
2021/11/16 04:00:46;;;;;;;3.80;3.40;;;;;;;;;;10383781;28;20034;-89
2021/11/16 04:05:46;;;;;;;4.70;3.80;;;;;;;;;;10407864;28;20362;-88
2021/11/16 04:10:49;;;;;;;4.53;4.00;;;;;;;;;;10401863;28;20038;-88
2021/11/16 04:15:51;;;;;;;5.22;3.97;;;;;;;;;;10379711;28;20034;-88
2021/11/16 04:20:54;;;;;;;6.63;3.70;;;;;;;;;;10358932;28;20091;-88
2021/11/16 04:25:55;;;;;;;5.10;4.00;;;;;;;;;;10376714;28;20354;-88
2021/11/16 04:30:59;;;;;;;5.50;4.03;;;;;;;;;;10392667;28;20061;-88
2021/11/16 04:36:00;;;;;;;4.18;3.50;;;;;;;;;;10379831;28;20033;-88
2021/11/16 04:41:01;;;;;;;5.25;3.70;;;;;;;;;;10376475;28;20041;-87
2021/11/16 04:46:05;;;;;;;5.22;3.65;;;;;;;;;;10367182;28;20034;-87
2021/11/16 05:07:09;;;;;;;;;;;;;;;;;;10376454;28;20058;-88
2021/11/16 05:12:10;;;;;;;3.72;3.42;;;;;;;;;;10356714;28;19928;-89
2021/11/16 05:17:11;;;;;;;4.15;3.50;;;;;;;;;;10366663;28;20018;-90
2021/11/16 05:22:11;;;;;;;3.78;3.38;;;;;;;;;;10382837;28;20026;-90
2021/11/16 05:27:14;;;;;;;4.20;3.78;;;;;;;;;;10379626;28;20053;-89
2021/11/16 05:32:15;;;;;;;3.72;3.35;;;;;;;;;;10391415;28;20522;-91
2021/11/16 05:37:16;;;;;;;4.47;3.78;;;;;;;;;;10379730;28;20071;-92
2021/11/16 05:42:21;;;;;;;4.60;3.37;;;;;;;;;;10374976;28;20044;-92
2021/11/16 05:47:21;;;;;;;5.13;3.67;;;;;;;;;;10374708;28;20460;-91
2021/11/16 05:52:23;;;;;;;3.88;3.15;;;;;;;;;;10374519;28;20017;-92
2021/11/16 05:57:24;;;;;;;5.68;3.40;;;;;;;;;;10359262;28;20071;-91
2021/11/16 06:02:24;;;;;;;4.38;3.40;;;;;;;;;;10372943;28;20065;-90
2021/11/16 06:07:25;;;;;;;3.60;3.30;;;;;;;;;;10361787;28;20041;-87
2021/11/16 06:12:25;;;;;;;5.30;3.58;;;;;;;;;;10359464;28;20998;-90
2021/11/16 06:17:26;;;;;;;4.50;3.72;;;;;;;;;;10373155;28;20461;-93
2021/11/16 06:22:26;;;;;;;4.65;3.83;;;;;;;;;;10343480;28;20477;-93
2021/11/16 06:27:27;;;;;;;3.92;3.55;;;;;;;;;;10373069;28;20053;-90
2021/11/16 06:32:27;;;;;;;7.97;3.78;;;;;;;;;;10371752;28;20065;-85
2021/11/16 06:37:28;;;;;;;4.60;3.87;;;;;;;;;;10372785;28;20037;-85
2021/11/16 06:42:28;;;;;;;4.53;4.07;;;;;;;;;;10371469;28;22626;-85
2021/11/16 06:47:30;;;;;;;8.07;3.50;;;;;;;;;;10370450;28;20069;-95
2021/11/16 06:52:33;;;;;;;6.60;3.72;;;;;;;;;;10361326;28;20069;-90
2021/11/16 06:57:34;;;;;;;6.03;3.85;;;;;;;;;;10371398;28;20041;-94
2021/11/16 07:02:35;;;;;;;6.38;4.50;;;;;;;;;;10348002;28;20385;-91
2021/11/16 07:07:45;;;;;;;7.78;4.22;;;;;;;;;;10351130;28;20030;-93
2021/11/16 07:12:46;;;;;;;15.80;4.20;;;;;;;;;;10361362;28;20035;-92
2021/11/16 07:17:47;;;;;;;8.25;4.25;;;;;;;;;;10353918;28;20030;-88
2021/11/16 07:22:52;;;;;;;9.02;4.15;;;;;;;;;;10358432;28;20042;-88
2021/11/16 07:27:54;;;;;;;13.18;4.93;;;;;;;;;;10345625;28;20050;-88
2021/11/16 07:33:00;;;;;;;8.43;4.47;;;;;;;;;;10342181;28;20027;-88
2021/11/16 07:38:03;;;;;;;10.25;4.38;;;;;;;;;;10363418;28;20034;-87
2021/11/16 07:43:08;;;;;;;10.63;4.70;;;;;;;;;;10367164;28;20128;-88
2021/11/16 07:48:10;;;;;;;17.83;5.03;;;;;;;;;;10387664;28;20480;-87
2021/11/16 07:53:12;;;;;;;6.05;4.55;;;;;;;;;;10397063;28;20025;-88
2021/11/16 07:58:13;;;;;;;9.18;4.93;;;;;;;;;;10392530;28;20104;-85
2021/11/16 08:03:23;;;;;;;8.23;5.03;;;;;;;;;;10378631;28;20057;-86
2021/11/16 08:08:35;;;;;;;14.98;4.97;;;;;;;;;;10353592;28;20034;-85
2021/11/16 08:13:36;;;;;;;8.55;5.07;;;;;;;;;;10371569;28;20030;-85
2021/11/16 08:18:45;;;;;;;8.52;5.00;;;;;;;;;;10374507;28;20076;-85
2021/11/16 08:23:55;;;;;;;11.80;5.22;;;;;;;;;;10359724;28;20029;-85
2021/11/16 08:28:55;;;;;;;6.05;4.38;;;;;;;;;;10377032;28;20129;-85
2021/11/16 08:33:56;;;;;;;6.07;4.47;;;;;;;;;;10365417;28;20100;-85
2021/11/16 08:38:59;;;;;;;10.35;4.60;;;;;;;;;;10377259;28;20056;-85
2021/11/16 08:44:20;;;;;;;7.35;4.75;;;;;;;;;;10376050;28;20022;-85
2021/11/16 08:49:32;;;;;;;7.43;5.07;;;;;;;;;;10378672;28;20501;-85
2021/11/16 08:54:37;;;;;;;6.22;4.60;;;;;;;;;;10381508;28;20103;-86
2021/11/16 08:59:38;;;;;;;6.40;4.57;;;;;;;;;;10378516;28;20049;-86
2021/11/16 09:04:40;;;;;;;7.97;4.47;;;;;;;;;;10376248;28;20088;-86
2021/11/16 09:10:07;;;;;;;7.75;4.63;;;;;;;;;;10375224;28;20025;-86
2021/11/16 09:15:10;;;;;;;6.93;5.05;;;;;;;;;;10367462;28;20021;-85
2021/11/16 09:20:20;;;;;;;8.80;4.38;;;;;;;;;;10375453;28;20029;-86
2021/11/16 09:25:30;;;;;;;7.30;4.88;;;;;;;;;;10375390;28;20029;-86
2021/11/16 09:30:38;;;;;;;7.00;4.82;;;;;;;;;;10373792;28;20136;-86
2021/11/16 09:36:00;;;;;;;9.57;4.90;;;;;;;;;;10374779;28;20030;-85
2021/11/16 09:41:00;;;;;;;7.00;4.20;;;;;;;;;;10370309;28;20389;-84
2021/11/16 09:46:10;;;;;;;8.27;4.80;;;;;;;;;;10368578;28;20145;-85
2021/11/16 09:51:18;;;;;;;6.68;4.15;;;;;;;;;;10368561;28;20444;-84
2021/11/16 09:56:23;;;;;;;7.05;5.00;;;;;;;;;;10373212;28;20041;-85
2021/11/16 10:01:32;;;;;;;6.13;4.93;;;;;;;;;;10375721;28;20053;-86
2021/11/16 10:06:32;;;;;;;10.70;4.60;;;;;;;;;;10369290;28;20458;-86
2021/11/16 10:11:34;;;;;;;5.78;4.40;;;;;;;;;;10364250;28;20022;-86
2021/11/16 10:16:35;;;;;;;5.82;5.00;;;;;;;;;;10368787;28;20029;-86
2021/11/16 10:21:35;;;;;;;9.32;4.57;;;;;;;;;;10376859;28;20025;-86
2021/11/16 10:26:36;;;;;;;6.83;4.90;;;;;;;;;;10377085;28;20364;-85
2021/11/16 10:31:36;;;;;;;6.27;4.50;;;;;;;;;;10355114;28;20471;-86
2021/11/16 10:36:36;;;;;;;7.20;4.80;;;;;;;;;;10379998;28;20514;-87
2021/11/16 10:41:39;;;;;;;6.67;5.07;;;;;;;;;;10376447;28;20530;-86
2021/11/16 10:46:41;;;;;;;7.13;5.10;;;;;;;;;;10378098;28;20084;-86
2021/11/16 10:51:45;;;;;;;7.10;4.85;;;;;;;;;;10375112;28;20083;-86
2021/11/16 10:56:46;;;;;;;6.60;5.03;;;;;;;;;;10380051;28;20129;-86
2021/11/16 11:01:52;;;;;;;7.80;5.25;;;;;;;;;;10373370;28;20523;-87
2021/11/16 11:06:53;;;;;;;8.13;5.05;;;;;;;;;;10371704;28;20026;-87
2021/11/16 11:11:55;;;;;;;6.60;4.70;;;;;;;;;;10386375;28;20060;-86
2021/11/16 11:17:08;;;;;;;11.57;4.50;;;;;;;;;;10364160;28;20037;-87
2021/11/16 11:22:22;;;;;;;8.45;4.88;;;;;;;;;;10379546;28;20084;-93
2021/11/16 11:27:41;;;;;;;8.43;5.28;;;;;;;;;;10380392;28;20077;-90
2021/11/16 11:32:43;;;;;;;8.48;5.55;;;;;;;;;;10380045;28;20379;-91
2021/11/16 11:37:49;;;;;;;9.38;5.32;;;;;;;;;;10379642;28;20045;-91
2021/11/16 11:42:51;;;;;;;6.20;4.85;;;;;;;;;;10378134;28;20037;-90
2021/11/16 11:48:02;;;;;;;7.28;5.28;;;;;;;;;;10377258;28;20041;-92
2021/11/16 11:53:10;;;;;;;8.52;5.35;;;;;;;;;;10378717;28;20030;-91
2021/11/16 11:58:11;;;;;;;6.53;4.95;;;;;;;;;;10377043;28;20421;-91
2021/11/16 12:03:12;;;;;;;5.45;4.47;;;;;;;;;;10380827;28;20033;-91
2021/11/16 12:08:13;;;;;;;7.82;5.13;;;;;;;;;;10392218;28;20029;-91
2021/11/16 12:13:17;;;;;;;8.38;4.90;;;;;;;;;;10378077;28;20470;-93
2021/11/16 12:18:18;;;;;;;9.02;4.70;;;;;;;;;;10365400;28;20113;-93
2021/11/16 12:23:43;;;;;;;6.53;4.95;;;;;;;;;;10377343;28;20125;-93
2021/11/16 12:28:46;;;;;;;6.22;4.60;;;;;;;;;;10765725;23;20064;-88
2021/11/16 12:33:48;;;;;;;6.70;4.93;;;;;;;;;;10383870;28;20053;-88
2021/11/16 12:38:49;;;;;;;8.48;5.68;;;;;;;;;;10406175;28;20159;-87
2021/11/16 12:43:50;;;;;;;6.20;4.32;;;;;;;;;;10408213;28;20389;-87
2021/11/16 12:48:55;;;;;;;5.23;4.67;;;;;;;;;;10408567;28;20036;-87
2021/11/16 12:54:04;;;;;;;8.32;5.65;;;;;;;;;;10416791;28;20529;-87
2021/11/16 12:59:05;;;;;;;8.05;5.35;;;;;;;;;;10407516;28;20021;-88
2021/11/16 13:04:07;;;;;;;7.27;5.10;;;;;;;;;;10416348;28;20029;-87
2021/11/16 13:09:09;;;;;;;7.00;5.03;;;;;;;;;;10406057;28;20443;-87
2021/11/16 13:14:13;;;;;;;8.20;4.95;;;;;;;;;;10416140;28;20358;-88
2021/11/16 13:19:13;;;;;;;7.13;5.07;;;;;;;;;;10391219;28;20026;-88
2021/11/16 13:24:14;;;;;;;6.17;5.13;;;;;;;;;;10408346;28;20044;-85
2021/11/16 13:29:20;;;;;;;6.47;4.60;;;;;;;;;;10415405;28;20085;-86
2021/11/16 13:34:45;;;;;;;5.63;5.00;;;;;;;;;;10408236;28;20119;-86
2021/11/16 13:39:45;;;;;;;8.05;4.78;;;;;;;;;;10388987;28;20473;-86
2021/11/16 13:44:55;;;;;;;6.13;5.22;;;;;;;;;;10385578;28;20128;-88
2021/11/16 13:50:10;;;;;;;5.95;4.65;;;;;;;;;;10407451;28;20476;-88
2021/11/16 13:55:19;;;;;;;8.15;5.57;;;;;;;;;;10414022;28;20060;-89
2021/11/16 14:00:29;;;;;;;7.00;5.15;;;;;;;;;;10407207;28;20025;-86
2021/11/16 14:05:47;;;;;;;9.43;5.38;;;;;;;;;;10393537;28;20041;-85
2021/11/16 14:10:55;;;;;;;8.27;4.87;;;;;;;;;;10381302;28;20076;-85
2021/11/16 14:16:04;;;;;;;6.95;5.03;;;;;;;;;;10380359;28;20030;-84
2021/11/16 14:21:11;;;;;;;7.90;5.10;;;;;;;;;;10406289;28;20029;-85
2021/11/16 14:26:20;;;;;;;5.15;4.40;;;;;;;;;;10399987;28;20036;-84
2021/11/16 14:31:23;;;;;;;;;;;;;;;;;;10408235;28;20041;-84
2021/11/16 14:36:35;;;;;;;8.35;4.95;;;;;;;;;;10402825;28;19913;-85
2021/11/16 14:41:44;;;;;;;6.10;5.03;;;;;;;;;;10406790;28;20488;-85
2021/11/16 14:46:56;;;;;;;7.45;4.68;;;;;;;;;;10405119;28;20026;-85
2021/11/16 14:51:57;;;;;;;11.25;5.35;;;;;;;;;;10397032;28;20368;-85
2021/11/16 14:56:58;;;;;;;10.23;5.10;;;;;;;;;;10396135;28;20025;-85
2021/11/16 15:02:00;;;;;;;7.03;4.87;;;;;;;;;;10381714;28;20041;-85
2021/11/16 15:07:12;;;;;;;9.02;5.15;;;;;;;;;;10354655;28;20455;-84
2021/11/16 15:12:14;;;;;;;6.13;4.85;;;;;;;;;;10381152;28;20053;-85
2021/11/16 15:17:15;;;;;;;6.60;5.25;;;;;;;;;;10386744;28;20034;-84
2021/11/16 15:22:31;;;;;;;6.38;5.28;;;;;;;;;;10395488;28;20041;-84
2021/11/16 15:27:35;;;;;;;6.43;5.68;;;;;;;;;;10401436;28;20041;-84
2021/11/16 15:32:36;;;;;;;7.35;5.45;;;;;;;;;;10383396;28;20026;-85
2021/11/16 15:37:37;;;;;;;8.57;5.45;;;;;;;;;;10417962;28;20034;-85
2021/11/16 15:43:07;;;;;;;7.30;5.57;;;;;;;;;;10388523;28;20067;-85
2021/11/16 15:48:15;;;;;;;7.65;5.80;;;;;;;;;;10410896;28;20373;-85
2021/11/16 15:58:24;;;;;;;6.85;5.28;;;;;;;;;;10417429;28;20074;-84
2021/11/16 16:03:25;;;;;;;;;;;;;;;;;;10413391;28;20065;-84
2021/11/16 16:08:25;;;;;;;9.80;5.53;;;;;;;;;;10398643;28;19909;-84
2021/11/16 16:13:30;;;;;;;8.07;5.30;;;;;;;;;;10418952;28;20136;-84
2021/11/16 16:18:30;;;;;;;7.60;5.90;;;;;;;;;;10407822;28;20025;-87
2021/11/16 16:23:31;;;;;;;7.35;5.25;;;;;;;;;;10401368;28;20029;-85
2021/11/16 16:28:31;;;;;;;7.20;4.97;;;;;;;;;;10414784;28;20045;-84
2021/11/16 16:33:31;;;;;;;8.40;5.93;;;;;;;;;;10411717;28;20041;-86
2021/11/16 16:38:32;;;;;;;7.50;5.83;;;;;;;;;;10388876;28;20029;-86
2021/11/16 16:43:35;;;;;;;6.50;5.63;;;;;;;;;;10389990;28;20034;-86
2021/11/16 16:48:35;;;;;;;6.90;5.22;;;;;;;;;;10387587;28;20056;-86
2021/11/16 16:53:36;;;;;;;8.48;5.47;;;;;;;;;;10382739;28;20022;-87
2021/11/16 16:58:38;;;;;;;7.18;4.93;;;;;;;;;;10387527;28;20030;-86
2021/11/16 17:03:38;;;;;;;8.35;5.43;;;;;;;;;;10386681;28;20034;-87
2021/11/16 17:08:40;;;;;;;10.82;6.30;;;;;;;;;;10378471;28;20446;-86
2021/11/16 17:13:44;;;;;;;8.32;6.07;;;;;;;;;;10403327;28;20022;-84
2021/11/16 17:18:58;;;;;;;8.55;6.15;;;;;;;;;;10415334;28;20107;-85
2021/11/16 17:24:02;;;;;;;9.13;5.65;;;;;;;;;;10383910;28;20045;-85
2021/11/16 17:29:03;;;;;;;8.43;5.70;;;;;;;;;;10391314;28;20064;-85
2021/11/16 17:34:05;;;;;;;11.32;6.97;;;;;;;;;;10366912;28;20397;-85
2021/11/16 17:39:07;;;;;;;15.35;6.97;;;;;;;;;;10392159;28;20025;-85
2021/11/16 17:44:10;;;;;;;10.38;6.30;;;;;;;;;;10383022;28;20065;-86
2021/11/16 17:49:13;;;;;;;9.13;6.57;;;;;;;;;;10404007;28;20022;-84
2021/11/16 17:54:16;;;;;;;10.45;7.07;;;;;;;;;;10389353;28;20030;-88
2021/11/16 17:59:18;;;;;;;10.13;6.40;;;;;;;;;;10386116;28;20037;-87
2021/11/16 18:04:25;;;;;;;8.63;6.40;;;;;;;;;;10390659;28;20171;-86
2021/11/16 18:09:25;;;;;;;9.30;6.22;;;;;;;;;;10396640;28;20461;-86
2021/11/16 18:14:26;;;;;;;9.00;6.00;;;;;;;;;;10389553;28;20041;-88
2021/11/16 18:19:27;;;;;;;9.95;5.43;;;;;;;;;;10390431;28;20466;-87
2021/11/16 18:24:28;;;;;;;7.95;5.88;;;;;;;;;;10405798;28;20465;-88
2021/11/16 18:29:33;;;;;;;7.80;5.60;;;;;;;;;;10382691;28;20100;-88
2021/11/16 18:34:35;;;;;;;8.07;5.63;;;;;;;;;;10359183;28;20030;-87
2021/11/16 18:39:45;;;;;;;8.18;5.55;;;;;;;;;;10401485;28;20033;-87
2021/11/16 18:50:18;;;;;;;6.68;5.32;;;;;;;;;;10390842;28;20048;-87
2021/11/16 18:55:30;;;;;;;7.65;5.43;;;;;;;;;;10407147;28;20128;-87
2021/11/16 19:00:30;;;;;;;6.60;5.15;;;;;;;;;;10395579;28;20045;-87
2021/11/16 19:05:31;;;;;;;5.97;5.38;;;;;;;;;;10405212;28;20037;-88
2021/11/16 19:10:31;;;;;;;9.75;5.50;;;;;;;;;;10379627;28;20049;-88
2021/11/16 19:15:32;;;;;;;7.30;5.75;;;;;;;;;;10397823;28;20095;-88
2021/11/16 19:20:32;;;;;;;10.67;6.70;;;;;;;;;;10409149;28;20033;-88
2021/11/16 19:25:33;;;;;;;9.98;6.35;;;;;;;;;;10403744;28;20478;-88
2021/11/16 19:30:33;;;;;;;11.07;7.15;;;;;;;;;;10414953;28;20393;-88
2021/11/16 19:35:44;;;;;;;9.70;6.88;;;;;;;;;;10402986;28;20484;-88
2021/11/16 19:40:45;;;;;;;8.32;6.85;;;;;;;;;;10408621;28;20041;-88
2021/11/16 19:45:48;;;;;;;8.68;6.63;;;;;;;;;;10413096;28;20029;-87
2021/11/16 19:50:50;;;;;;;11.20;7.25;;;;;;;;;;10418700;28;20037;-90
2021/11/16 19:55:51;;;;;;;10.38;6.40;;;;;;;;;;10417651;28;20350;-88
2021/11/16 20:00:51;;;;;;;8.55;6.53;;;;;;;;;;10412801;28;20037;-87
2021/11/16 20:05:52;;;;;;;8.18;6.53;;;;;;;;;;10418311;28;20033;-88
2021/11/16 20:10:55;;;;;;;10.43;6.28;;;;;;;;;;10388110;28;20073;-87
2021/11/16 20:15:55;;;;;;;12.10;6.90;;;;;;;;;;10399566;28;20033;-87
2021/11/16 20:20:55;;;;;;;15.70;7.00;;;;;;;;;;10410975;28;20033;-87
2021/11/16 20:25:58;;;;;;;10.50;6.38;;;;;;;;;;10415675;28;20038;-87
2021/11/16 20:31:00;;;;;;;11.45;6.78;;;;;;;;;;10409210;28;20517;-85
2021/11/16 20:36:08;;;;;;;24.73;7.53;;;;;;;;;;10311074;28;20081;-89
2021/11/16 20:41:22;;;;;;;14.48;7.47;;;;;;;;;;10273272;28;20382;-89
2021/11/16 21:02:20;;;;;;;;;;;;;;;;;;10269115;28;19914;-88
2021/11/16 21:07:20;;;;;;;16.83;7.18;;;;;;;;;;10273834;28;19918;-88
2021/11/16 21:12:21;;;;;;;9.45;6.40;;;;;;;;;;10283696;28;20110;-88
2021/11/16 21:17:21;;;;;;;16.83;6.73;;;;;;;;;;10286079;28;20042;-90
2021/11/16 21:22:26;;;;;;;26.33;9.90;;;;;;;;;;10288678;28;20449;-90
2021/11/16 21:27:28;;;;;;;18.45;7.47;;;;;;;;;;10290354;28;20070;-89
2021/11/16 21:32:29;;;;;;;23.40;8.52;;;;;;;;;;10288923;28;20035;-90
2021/11/16 21:37:30;;;;;;;17.95;8.10;;;;;;;;;;10283044;28;20034;-91
2021/11/16 21:42:30;;;;;;;16.83;8.03;;;;;;;;;;10291226;28;20030;-91
2021/11/16 21:47:30;;;;;;;20.75;8.75;;;;;;;;;;10282406;28;20544;-91
2021/11/16 21:52:31;;;;;;;13.57;8.10;;;;;;;;;;10285098;28;20058;-90
2021/11/16 21:57:31;;;;;;;14.90;7.53;;;;;;;;;;10276645;28;20069;-90
2021/11/16 22:02:32;;;;;;;19.40;7.90;;;;;;;;;;10293129;28;20540;-88
2021/11/16 22:12:44;;;;;;;14.40;8.02;;;;;;;;;;10280208;28;20441;-88
2021/11/16 22:17:44;;;;;;;12.88;7.47;;;;;;;;;;10280580;28;20038;-88
2021/11/16 22:22:45;;;;;;;15.85;8.18;;;;;;;;;;10284197;28;20382;-88
2021/11/16 22:27:45;;;;;;;12.07;7.03;;;;;;;;;;10264154;28;20054;-87
2021/11/16 22:32:53;;;;;;;12.57;8.05;;;;;;;;;;10260183;28;20968;-88
2021/11/16 22:37:54;;;;;;;12.85;8.20;;;;;;;;;;10273698;28;20126;-88
2021/11/16 22:42:55;;;;;;;32.45;7.85;;;;;;;;;;10269517;28;20145;-88
2021/11/16 22:47:56;;;;;;;21.90;7.03;;;;;;;;;;10277000;28;20039;-91
2021/11/16 22:52:56;;;;;;;17.08;7.55;;;;;;;;;;10287191;28;20552;-91
2021/11/16 22:57:56;;;;;;;19.47;7.70;;;;;;;;;;10266213;28;20030;-89
